Time;durP1;ratioP1;P1;durP2;ratioP2;P2;SDS_P1;SDS_P2;PMS_P1;PMS_P2;Temp;Humidity;BMP_temperature;BMP_pressure;BME280_temperature;BME280_humidity;BME280_pressure;Samples;Min_cycle;Max_cycle;Signal;HPM_P1;HPM_P2
2023/01/09 00:00:27;;;;;;;1.30;1.30;;;6.20;99.90;;;;;;5013197;28;20033;-76
2023/01/09 00:02:53;;;;;;;1.77;1.77;;;6.20;99.90;;;;;;5013286;28;20045;-75
2023/01/09 00:05:19;;;;;;;2.17;2.08;;;6.20;99.90;;;;;;5013485;28;20065;-76
2023/01/09 00:07:44;;;;;;;2.22;2.03;;;6.20;99.90;;;;;;5011575;28;20132;-75
2023/01/09 00:10:11;;;;;;;1.50;1.50;;;6.10;99.90;;;;;;5012057;28;20026;-75
2023/01/09 00:12:37;;;;;;;2.65;2.53;;;6.10;99.90;;;;;;5013280;28;20024;-76
2023/01/09 00:15:04;;;;;;;1.70;1.70;;;6.00;99.90;;;;;;5013338;28;20030;-76
2023/01/09 00:17:29;;;;;;;1.98;1.98;;;6.00;99.90;;;;;;5011521;28;20113;-75
2023/01/09 00:19:55;;;;;;;2.33;2.22;;;6.00;99.90;;;;;;5011740;28;20535;-76
2023/01/09 00:22:20;;;;;;;1.85;1.85;;;5.90;99.90;;;;;;5013121;28;20507;-76
2023/01/09 00:24:46;;;;;;;2.05;2.05;;;5.90;99.90;;;;;;5013068;28;20026;-75
2023/01/09 00:27:13;;;;;;;2.05;2.00;;;5.90;99.90;;;;;;5011686;28;20037;-76
2023/01/09 00:29:40;;;;;;;2.72;2.63;;;5.90;99.90;;;;;;5012567;28;20116;-75
2023/01/09 00:32:09;;;;;;;2.60;2.50;;;5.80;99.90;;;;;;5011699;28;20034;-74
2023/01/09 00:34:36;;;;;;;2.83;2.72;;;5.80;99.90;;;;;;5012827;28;20475;-74
2023/01/09 00:37:02;;;;;;;2.40;2.30;;;5.80;99.90;;;;;;5011089;28;20076;-73
2023/01/09 00:39:28;;;;;;;2.70;2.60;;;5.80;99.90;;;;;;5012785;28;20018;-74
2023/01/09 00:41:57;;;;;;;4.47;4.28;;;5.80;99.90;;;;;;5012684;28;20079;-75
2023/01/09 00:44:28;;;;;;;3.17;3.08;;;5.70;99.90;;;;;;5011473;28;20472;-76
2023/01/09 00:46:59;;;;;;;3.45;3.30;;;5.70;99.90;;;;;;5011054;28;20037;-75
2023/01/09 00:49:29;;;;;;;4.07;3.92;;;5.70;99.90;;;;;;5012463;28;20030;-75
2023/01/09 00:51:55;;;;;;;3.65;3.55;;;5.70;99.90;;;;;;5011116;28;20026;-75
2023/01/09 00:54:21;;;;;;;3.42;3.33;;;5.70;99.90;;;;;;5012503;28;20049;-75
2023/01/09 00:56:47;;;;;;;4.53;4.40;;;5.70;99.90;;;;;;5012226;28;20034;-75
2023/01/09 00:59:13;;;;;;;4.05;3.95;;;5.70;99.90;;;;;;5011147;28;20112;-76
2023/01/09 01:01:38;;;;;;;4.68;4.47;;;5.70;99.90;;;;;;5010986;28;20053;-76
2023/01/09 01:07:37;;;;;;;5.57;5.28;;;5.60;99.90;;;;;;5011132;28;20017;-76
2023/01/09 01:09:33;;;;;;;5.32;5.13;;;5.60;99.90;;;;;;5012448;28;20044;-76
2023/01/09 01:12:01;;;;;;;6.57;6.28;;;5.60;99.90;;;;;;5010920;28;20025;-75
2023/01/09 01:14:34;;;;;;;5.43;5.13;;;5.60;99.90;;;;;;5010834;28;20109;-74
2023/01/09 01:17:00;;;;;;;6.65;6.45;;;5.60;99.90;;;;;;5010732;28;20057;-74
2023/01/09 01:19:26;;;;;;;6.65;6.25;;;5.60;99.90;;;;;;5010631;28;20499;-75
2023/01/09 01:21:51;;;;;;;5.95;5.75;;;5.70;99.90;;;;;;5011764;28;20375;-74
2023/01/09 01:24:18;;;;;;;6.28;6.07;;;5.70;99.90;;;;;;5010761;28;20033;-74
2023/01/09 01:26:45;;;;;;;6.03;5.82;;;5.70;99.90;;;;;;5011887;28;20032;-75
2023/01/09 01:31:45;;;;;;;6.87;6.47;;;5.70;99.90;;;;;;5010150;28;20049;-72
2023/01/09 01:34:11;;;;;;;6.78;6.47;;;5.70;99.90;;;;;;5011299;28;20642;-71
2023/01/09 01:36:36;;;;;;;7.63;7.32;;;5.70;99.90;;;;;;5011690;28;20568;-72
2023/01/09 01:39:02;;;;;;;7.13;6.82;;;5.70;99.90;;;;;;5006188;28;20447;-72
2023/01/09 01:41:30;;;;;;;8.40;8.07;;;5.70;99.90;;;;;;4986767;28;20446;-72
2023/01/09 01:43:55;;;;;;;6.03;5.82;;;5.70;99.90;;;;;;5005723;28;20101;-71
2023/01/09 01:46:21;;;;;;;9.73;9.27;;;5.70;99.90;;;;;;5005056;28;20109;-72
2023/01/09 01:48:50;;;;;;;8.27;7.97;;;5.70;99.90;;;;;;4998601;28;20032;-73
2023/01/09 01:51:18;;;;;;;8.35;8.05;;;5.80;99.90;;;;;;5011616;28;20774;-73
2023/01/09 01:53:50;;;;;;;12.57;11.25;;;5.70;99.90;;;;;;5011827;28;20030;-72
2023/01/09 01:56:41;;;;;;;8.35;8.02;;;5.70;99.90;;;;;;4998409;28;20468;-73
2023/01/09 01:59:20;;;;;;;8.48;8.18;;;5.80;99.90;;;;;;4993579;28;20522;-73
2023/01/09 02:01:51;;;;;;;9.15;8.85;;;5.80;99.90;;;;;;5024776;28;20041;-73
2023/01/09 02:04:17;;;;;;;9.63;9.32;;;5.80;99.90;;;;;;4999813;28;20499;-74
2023/01/09 02:06:45;;;;;;;10.60;10.15;;;5.80;99.90;;;;;;5004993;28;20037;-73
2023/01/09 02:09:16;;;;;;;9.20;8.80;;;5.90;99.90;;;;;;4988284;28;20121;-73
2023/01/09 02:11:46;;;;;;;9.00;8.70;;;5.90;99.90;;;;;;5003597;28;20026;-73
2023/01/09 02:14:13;;;;;;;11.65;11.20;;;6.00;99.90;;;;;;4988012;28;20029;-73
2023/01/09 02:16:41;;;;;;;11.50;11.10;;;6.10;99.90;;;;;;5000167;28;20034;-73
2023/01/09 02:19:16;;;;;;;11.70;11.27;;;6.10;99.90;;;;;;4997982;28;20037;-74
2023/01/09 02:21:53;;;;;;;10.38;9.98;;;6.10;99.90;;;;;;5011510;28;20023;-75
2023/01/09 02:24:35;;;;;;;10.38;9.98;;;6.20;99.90;;;;;;4980957;28;20053;-74
2023/01/09 02:27:29;;;;;;;10.27;9.88;;;6.20;99.90;;;;;;4998233;28;20034;-74
2023/01/09 02:30:07;;;;;;;11.90;11.48;;;6.20;99.90;;;;;;4983088;28;20035;-74
2023/01/09 02:32:55;;;;;;;12.70;12.20;;;6.20;99.90;;;;;;4986038;28;20026;-74
2023/01/09 02:35:57;;;;;;;13.23;12.73;;;6.20;99.90;;;;;;5008420;28;20044;-73
2023/01/09 02:39:01;;;;;;;13.98;13.48;;;6.20;99.90;;;;;;4983168;28;20484;-73
2023/01/09 02:41:39;;;;;;;15.07;14.48;;;6.10;99.90;;;;;;5002508;28;20416;-73
2023/01/09 02:44:23;;;;;;;15.30;14.70;;;6.10;99.90;;;;;;5002592;28;20057;-73
2023/01/09 02:47:19;;;;;;;14.40;13.90;;;6.10;99.90;;;;;;5001550;28;20029;-73
2023/01/09 02:50:01;;;;;;;15.43;14.82;;;6.10;99.90;;;;;;4973643;28;20579;-74
2023/01/09 02:52:47;;;;;;;16.23;15.52;;;6.00;99.90;;;;;;5014931;28;20026;-74
2023/01/09 02:55:42;;;;;;;16.45;15.85;;;6.10;99.90;;;;;;4997240;28;20518;-73
2023/01/09 02:58:27;;;;;;;17.30;16.52;;;6.00;99.90;;;;;;5001411;28;20048;-72
2023/01/09 03:01:11;;;;;;;16.60;16.00;;;6.00;99.90;;;;;;5014821;28;20097;-73
2023/01/09 03:04:00;;;;;;;15.60;15.00;;;6.00;99.90;;;;;;5003001;28;20484;-72
2023/01/09 03:06:46;;;;;;;16.02;15.38;;;6.00;99.90;;;;;;5007861;28;20425;-71
2023/01/09 03:09:19;;;;;;;16.42;15.82;;;6.00;99.90;;;;;;4996589;28;20036;-72
2023/01/09 03:12:03;;;;;;;16.55;15.95;;;6.00;99.90;;;;;;5003318;28;20069;-72
2023/01/09 03:14:32;;;;;;;16.30;15.60;;;6.00;99.90;;;;;;5014859;28;20040;-72
2023/01/09 03:17:05;;;;;;;15.95;15.35;;;6.00;99.90;;;;;;5014295;28;20034;-72
2023/01/09 03:19:33;;;;;;;16.58;15.98;;;6.00;99.90;;;;;;4996908;28;20487;-73
2023/01/09 03:21:59;;;;;;;17.00;16.40;;;6.00;99.90;;;;;;5014276;28;20061;-73
2023/01/09 03:24:24;;;;;;;17.52;16.92;;;6.00;99.90;;;;;;5001176;28;20033;-72
2023/01/09 03:26:53;;;;;;;18.77;17.98;;;6.00;99.90;;;;;;5013935;28;20034;-72
2023/01/09 03:29:18;;;;;;;19.20;18.20;;;5.90;99.90;;;;;;5014326;28;20030;-73
2023/01/09 03:31:44;;;;;;;18.58;17.77;;;5.90;99.90;;;;;;5014352;28;20052;-72
2023/01/09 03:34:09;;;;;;;17.70;17.10;;;5.90;99.90;;;;;;4983906;28;20666;-72
2023/01/09 03:36:35;;;;;;;18.52;17.83;;;5.90;99.90;;;;;;4996457;28;20442;-73
2023/01/09 03:39:00;;;;;;;16.85;16.25;;;5.90;99.90;;;;;;5013728;28;20032;-73
2023/01/09 03:41:26;;;;;;;17.10;16.50;;;5.90;99.90;;;;;;4996273;28;20026;-73
2023/01/09 03:43:51;;;;;;;16.05;15.18;;;5.90;99.90;;;;;;5000666;28;20026;-74
2023/01/09 03:46:17;;;;;;;15.35;14.75;;;5.90;99.90;;;;;;5003815;28;20395;-74
2023/01/09 03:48:43;;;;;;;17.50;16.90;;;5.90;99.90;;;;;;5013450;28;20030;-73
2023/01/09 03:51:09;;;;;;;16.65;16.05;;;6.00;99.90;;;;;;5002495;28;20391;-72
2023/01/09 03:53:34;;;;;;;17.27;16.63;;;6.00;99.90;;;;;;5011852;28;20029;-73
2023/01/09 03:56:00;;;;;;;17.63;17.00;;;6.00;99.90;;;;;;4995922;28;20029;-72
2023/01/09 03:58:26;;;;;;;20.83;19.92;;;6.00;99.90;;;;;;5000235;28;20022;-73
2023/01/09 04:00:59;;;;;;;16.75;16.10;;;6.00;99.90;;;;;;5013753;28;20026;-72
2023/01/09 04:03:25;;;;;;;17.60;17.00;;;5.90;99.90;;;;;;4996045;28;20035;-72
2023/01/09 04:05:50;;;;;;;18.65;17.73;;;6.00;99.90;;;;;;5001926;28;20088;-72
2023/01/09 04:08:17;;;;;;;16.83;16.23;;;6.00;99.90;;;;;;4995680;28;20022;-72
2023/01/09 04:10:44;;;;;;;17.33;16.73;;;6.00;99.90;;;;;;5013098;28;20527;-74
2023/01/09 04:13:10;;;;;;;17.27;16.58;;;6.00;99.90;;;;;;5000011;28;20041;-72
2023/01/09 04:15:35;;;;;;;17.08;16.48;;;6.00;99.90;;;;;;5013082;28;20033;-72
2023/01/09 04:18:02;;;;;;;16.00;15.40;;;6.00;99.90;;;;;;4989493;28;20026;-73
2023/01/09 04:20:28;;;;;;;15.15;14.65;;;6.00;99.90;;;;;;4988912;28;20480;-74
2023/01/09 04:22:53;;;;;;;14.80;14.30;;;5.90;99.90;;;;;;5012888;28;20057;-74
2023/01/09 04:25:21;;;;;;;15.23;14.63;;;5.90;99.90;;;;;;5011838;28;20472;-73
2023/01/09 04:27:47;;;;;;;15.60;15.00;;;6.00;99.90;;;;;;5012758;28;20033;-74
2023/01/09 04:30:13;;;;;;;14.48;13.95;;;5.90;99.90;;;;;;5012829;28;20037;-74
2023/01/09 04:32:38;;;;;;;16.92;16.23;;;6.00;99.90;;;;;;5013093;28;20018;-73
2023/01/09 04:35:05;;;;;;;16.38;15.77;;;6.00;99.90;;;;;;4999887;28;20026;-73
2023/01/09 04:37:30;;;;;;;17.35;16.65;;;6.00;99.90;;;;;;5012399;28;20076;-73
2023/01/09 04:39:56;;;;;;;15.30;14.73;;;6.00;99.90;;;;;;5012685;28;20042;-72
2023/01/09 04:42:22;;;;;;;16.42;15.82;;;5.90;99.90;;;;;;5005648;28;20097;-74
2023/01/09 04:44:52;;;;;;;15.90;15.30;;;6.00;99.90;;;;;;4989338;28;20120;-73
2023/01/09 04:47:18;;;;;;;17.60;17.00;;;6.00;99.90;;;;;;4987138;28;20023;-72
2023/01/09 04:49:44;;;;;;;16.08;15.48;;;6.00;99.90;;;;;;5007292;28;20038;-72
2023/01/09 04:52:09;;;;;;;15.98;15.38;;;6.00;99.90;;;;;;5012549;28;20088;-73
2023/01/09 04:54:35;;;;;;;15.75;15.15;;;6.00;99.90;;;;;;4999517;28;20063;-72
2023/01/09 04:57:00;;;;;;;14.75;14.25;;;6.00;99.90;;;;;;5004273;28;20038;-71
2023/01/09 04:59:26;;;;;;;14.25;13.75;;;6.00;99.90;;;;;;4988873;28;20056;-72
2023/01/09 05:01:53;;;;;;;14.43;13.93;;;6.00;99.90;;;;;;4994890;28;20022;-72
2023/01/09 05:04:19;;;;;;;16.65;16.05;;;6.00;99.90;;;;;;5012638;28;20018;-74
2023/01/09 05:06:44;;;;;;;14.82;14.27;;;6.00;99.90;;;;;;5012145;28;20083;-72
2023/01/09 05:09:10;;;;;;;14.95;14.45;;;6.00;99.90;;;;;;4998834;28;20089;-72
2023/01/09 05:11:35;;;;;;;15.85;15.25;;;6.00;99.90;;;;;;4999650;28;20025;-73
2023/01/09 05:14:01;;;;;;;15.60;15.00;;;6.00;99.90;;;;;;5012367;28;20030;-71
2023/01/09 05:16:26;;;;;;;13.70;13.20;;;6.00;99.90;;;;;;5004975;28;20034;-72
2023/01/09 05:18:55;;;;;;;15.85;15.15;;;6.00;99.90;;;;;;5006126;28;20057;-73
2023/01/09 05:21:21;;;;;;;15.70;15.10;;;6.00;99.90;;;;;;4994314;28;20239;-73
2023/01/09 05:23:47;;;;;;;13.45;12.95;;;6.00;99.90;;;;;;4993211;28;20061;-72
2023/01/09 05:26:13;;;;;;;15.25;14.65;;;6.00;99.90;;;;;;4992487;28;20057;-72
2023/01/09 05:28:38;;;;;;;15.60;15.00;;;6.00;99.90;;;;;;4993083;28;20045;-72
2023/01/09 05:31:04;;;;;;;15.77;15.18;;;6.00;99.90;;;;;;5011152;28;20096;-73
2023/01/09 05:33:29;;;;;;;14.07;13.57;;;6.00;99.90;;;;;;5011093;28;20508;-73
2023/01/09 05:35:55;;;;;;;15.80;15.20;;;6.00;99.90;;;;;;5011802;28;20038;-71
2023/01/09 05:38:20;;;;;;;15.73;15.13;;;6.00;99.90;;;;;;4993713;28;20034;-72
2023/01/09 05:40:46;;;;;;;14.32;13.82;;;6.00;99.90;;;;;;5011344;28;20022;-72
2023/01/09 05:43:12;;;;;;;14.68;14.07;;;6.00;99.90;;;;;;5011532;28;20080;-71
2023/01/09 05:45:37;;;;;;;14.88;14.38;;;6.00;99.90;;;;;;4998854;28;20030;-71
2023/01/09 05:48:03;;;;;;;15.05;14.55;;;6.00;99.90;;;;;;4994122;28;20033;-72
2023/01/09 05:50:28;;;;;;;14.98;14.48;;;6.00;99.90;;;;;;4993784;28;20542;-72
2023/01/09 05:52:54;;;;;;;15.70;15.10;;;6.00;99.90;;;;;;5011535;28;20499;-72
2023/01/09 05:55:19;;;;;;;15.32;14.77;;;6.00;99.90;;;;;;5001710;28;20031;-71
2023/01/09 05:57:45;;;;;;;15.82;15.23;;;6.00;99.90;;;;;;5004671;28;20121;-71
2023/01/09 06:00:11;;;;;;;17.42;16.83;;;6.00;99.90;;;;;;5000607;28;20053;-72
2023/01/09 06:02:37;;;;;;;23.33;21.48;;;6.00;99.90;;;;;;5031469;28;20390;-72
2023/01/09 06:05:02;;;;;;;16.45;15.85;;;6.00;99.90;;;;;;5005700;28;20026;-72
2023/01/09 06:07:28;;;;;;;16.33;15.73;;;6.00;99.90;;;;;;5004088;28;20484;-72
2023/01/09 06:09:53;;;;;;;15.13;14.63;;;6.00;99.90;;;;;;5001903;28;20034;-72
2023/01/09 06:12:19;;;;;;;19.77;18.85;;;6.00;99.90;;;;;;5015523;28;20064;-72
2023/01/09 06:14:44;;;;;;;18.27;17.55;;;6.10;99.90;;;;;;4998107;28;20037;-72
2023/01/09 06:17:10;;;;;;;21.13;19.35;;;6.10;99.90;;;;;;5003193;28;20077;-72
2023/01/09 06:19:36;;;;;;;27.05;23.05;;;6.10;99.90;;;;;;5014898;28;20116;-72
2023/01/09 06:22:01;;;;;;;24.30;23.13;;;6.10;99.90;;;;;;5015565;28;20032;-73
2023/01/09 06:24:27;;;;;;;15.88;15.02;;;6.10;99.90;;;;;;5002274;28;20060;-71
2023/01/09 06:26:52;;;;;;;16.70;16.10;;;6.10;99.90;;;;;;4997935;28;20022;-72
2023/01/09 06:29:18;;;;;;;16.67;16.08;;;6.20;99.90;;;;;;5002968;28;20112;-72
2023/01/09 06:31:43;;;;;;;18.83;18.13;;;6.20;99.90;;;;;;4985627;28;20165;-72
2023/01/09 06:34:09;;;;;;;15.70;15.10;;;6.10;99.90;;;;;;5009034;28;20472;-71
2023/01/09 06:36:35;;;;;;;18.05;17.35;;;6.10;99.90;;;;;;5007610;28;20037;-71
2023/01/09 06:39:00;;;;;;;17.70;17.02;;;6.10;99.90;;;;;;5001740;28;20566;-72
2023/01/09 06:41:26;;;;;;;17.30;16.70;;;6.10;99.90;;;;;;5015092;28;20050;-71
2023/01/09 06:43:51;;;;;;;19.67;18.98;;;6.00;99.90;;;;;;5001885;28;20026;-71
2023/01/09 06:46:17;;;;;;;19.00;18.30;;;6.00;99.90;;;;;;5003599;28;20022;-71
2023/01/09 06:48:42;;;;;;;22.20;21.35;;;6.10;99.90;;;;;;4990467;28;20026;-71
2023/01/09 06:51:08;;;;;;;17.73;17.13;;;6.00;99.90;;;;;;4989386;28;20022;-72
2023/01/09 06:53:34;;;;;;;19.10;18.40;;;6.00;99.90;;;;;;5015019;28;20084;-71
2023/01/09 06:56:01;;;;;;;19.73;19.02;;;6.00;99.90;;;;;;5014933;28;20029;-71
2023/01/09 06:58:27;;;;;;;16.70;16.10;;;6.00;99.90;;;;;;5001837;28;20097;-71
2023/01/09 07:00:54;;;;;;;16.30;15.70;;;6.00;99.90;;;;;;5026843;28;20068;-71
2023/01/09 07:03:21;;;;;;;17.58;16.88;;;6.00;99.90;;;;;;5014428;28;20091;-71
2023/01/09 07:05:48;;;;;;;17.42;16.77;;;6.00;99.90;;;;;;5014604;28;20410;-71
2023/01/09 07:08:14;;;;;;;21.60;20.80;;;6.00;99.90;;;;;;5001037;28;20030;-72
2023/01/09 07:10:41;;;;;;;17.55;16.95;;;6.00;99.90;;;;;;5014247;28;20092;-71
2023/01/09 07:13:06;;;;;;;12.40;11.68;;;6.10;99.90;;;;;;4995763;28;20476;-71
2023/01/09 07:15:32;;;;;;;18.33;17.65;;;6.10;99.90;;;;;;4994911;28;20114;-70
2023/01/09 07:17:58;;;;;;;14.63;13.95;;;6.10;99.90;;;;;;5012680;28;20140;-71
2023/01/09 07:20:23;;;;;;;12.80;12.32;;;6.10;99.90;;;;;;4984070;28;20497;-71
2023/01/09 07:22:49;;;;;;;18.25;17.55;;;6.10;99.90;;;;;;5013168;28;20093;-71
2023/01/09 07:25:14;;;;;;;16.42;15.82;;;6.10;99.90;;;;;;5002861;28;20037;-70
2023/01/09 07:27:41;;;;;;;10.18;9.77;;;6.10;99.90;;;;;;5007235;28;20027;-72
2023/01/09 07:30:07;;;;;;;6.63;6.43;;;6.10;99.90;;;;;;5006368;28;20399;-72
2023/01/09 07:32:33;;;;;;;15.88;15.27;;;6.10;99.90;;;;;;5001561;28;20100;-72
2023/01/09 07:34:59;;;;;;;9.27;8.98;;;6.00;99.90;;;;;;5002166;28;20077;-72
2023/01/09 07:37:25;;;;;;;6.97;6.78;;;6.00;99.90;;;;;;4995631;28;20539;-71
2023/01/09 07:39:50;;;;;;;11.98;11.57;;;6.00;99.90;;;;;;5002191;28;20049;-73
2023/01/09 07:42:17;;;;;;;11.93;11.52;;;5.90;99.90;;;;;;5013178;28;20472;-73
2023/01/09 07:44:42;;;;;;;17.85;17.15;;;5.90;99.90;;;;;;5002627;28;20069;-73
2023/01/09 07:47:08;;;;;;;12.52;12.10;;;5.90;99.90;;;;;;4994782;28;20116;-73
2023/01/09 07:49:33;;;;;;;12.82;12.32;;;5.90;99.90;;;;;;4984895;28;21244;-73
2023/01/09 07:51:59;;;;;;;16.85;16.25;;;5.90;99.90;;;;;;5007708;28;20504;-73
2023/01/09 07:54:25;;;;;;;12.05;11.65;;;6.00;99.90;;;;;;5005900;28;20113;-72
2023/01/09 07:56:51;;;;;;;14.82;14.32;;;6.00;99.90;;;;;;4996043;28;20073;-72
2023/01/09 07:59:16;;;;;;;10.18;9.80;;;6.00;99.90;;;;;;5013704;28;20025;-73
2023/01/09 08:01:42;;;;;;;10.40;10.00;;;6.00;99.90;;;;;;5007416;28;20400;-72
2023/01/09 08:04:07;;;;;;;14.93;14.43;;;6.00;99.90;;;;;;4992547;28;20031;-72
2023/01/09 08:06:33;;;;;;;17.10;16.50;;;6.10;99.90;;;;;;5012344;28;20033;-71
2023/01/09 08:08:59;;;;;;;14.55;14.00;;;6.00;99.90;;;;;;5013777;28;20049;-72
2023/01/09 08:11:25;;;;;;;14.07;13.57;;;6.00;99.90;;;;;;4995379;28;20033;-72
2023/01/09 08:13:50;;;;;;;14.45;13.95;;;6.00;99.90;;;;;;4994121;28;20084;-72
2023/01/09 08:16:16;;;;;;;13.13;12.63;;;6.00;99.90;;;;;;4994087;28;20026;-73
2023/01/09 08:18:42;;;;;;;10.45;10.05;;;6.00;99.90;;;;;;4976410;28;20026;-72
2023/01/09 08:21:09;;;;;;;15.57;14.98;;;6.00;99.90;;;;;;4994452;28;20022;-72
2023/01/09 08:23:35;;;;;;;18.95;18.25;;;5.90;99.90;;;;;;5013759;28;20021;-72
2023/01/09 08:26:01;;;;;;;11.27;10.88;;;5.90;99.90;;;;;;5000299;28;20037;-72
2023/01/09 08:28:26;;;;;;;11.98;11.57;;;5.90;99.90;;;;;;5001613;28;20373;-72
2023/01/09 08:30:52;;;;;;;13.88;13.38;;;5.90;99.90;;;;;;5011926;28;20476;-72
2023/01/09 08:33:17;;;;;;;15.07;14.57;;;6.00;99.90;;;;;;5013169;28;20101;-73
2023/01/09 08:35:43;;;;;;;14.60;14.10;;;6.00;99.90;;;;;;5008289;28;20065;-72
2023/01/09 08:38:09;;;;;;;12.38;11.95;;;6.00;99.90;;;;;;4987330;28;20029;-72
2023/01/09 08:40:35;;;;;;;11.88;11.48;;;6.00;99.90;;;;;;4977598;28;20168;-72
2023/01/09 08:48:30;;;;;;;14.05;13.55;;;6.00;99.90;;;;;;4997110;28;20092;-72
2023/01/09 08:50:55;;;;;;;15.02;14.45;;;5.90;99.90;;;;;;5012894;28;20025;-73
2023/01/09 08:53:21;;;;;;;21.75;20.92;;;6.00;99.90;;;;;;4999223;28;20026;-72
2023/01/09 08:55:46;;;;;;;7.70;7.40;;;6.00;99.90;;;;;;5012825;28;20029;-72
2023/01/09 08:58:12;;;;;;;15.07;14.50;;;6.00;99.90;;;;;;5012396;28;20203;-73
2023/01/09 09:00:38;;;;;;;11.05;10.65;;;6.00;99.90;;;;;;5012454;28;20025;-73
2023/01/09 09:03:04;;;;;;;16.65;15.85;;;5.90;99.90;;;;;;5012665;28;20033;-73
2023/01/09 09:05:31;;;;;;;9.52;8.82;;;5.90;99.90;;;;;;5003814;28;20018;-73
2023/01/09 09:07:57;;;;;;;11.35;10.95;;;5.90;99.90;;;;;;5008261;28;20097;-73
2023/01/09 09:10:25;;;;;;;12.65;12.15;;;5.90;99.90;;;;;;4992945;28;20106;-72
2023/01/09 09:12:52;;;;;;;14.95;14.30;;;5.90;99.90;;;;;;4979279;28;20054;-73
2023/01/09 09:15:24;;;;;;;13.45;12.95;;;5.80;99.90;;;;;;4994889;28;20018;-73
2023/01/09 09:18:01;;;;;;;12.90;8.75;;;5.90;99.90;;;;;;4989398;28;20026;-73
2023/01/09 09:20:32;;;;;;;8.80;5.03;;;5.80;99.90;;;;;;5005797;28;20022;-73
2023/01/09 09:22:58;;;;;;;7.82;7.45;;;5.90;99.90;;;;;;4999667;28;20053;-72
2023/01/09 09:25:24;;;;;;;9.27;8.85;;;5.80;99.90;;;;;;4994190;28;20060;-75
2023/01/09 09:27:50;;;;;;;7.63;7.32;;;5.80;99.90;;;;;;4998527;28;20502;-73
2023/01/09 09:30:18;;;;;;;8.05;7.75;;;5.80;99.90;;;;;;5010692;28;20030;-73
2023/01/09 09:32:44;;;;;;;11.85;11.35;;;5.80;99.90;;;;;;5012124;28;20395;-72
2023/01/09 09:35:09;;;;;;;6.15;5.95;;;5.80;99.90;;;;;;4999168;28;20168;-73
2023/01/09 09:37:36;;;;;;;5.85;5.65;;;5.80;99.90;;;;;;5011882;28;20499;-73
2023/01/09 09:40:02;;;;;;;4.68;4.47;;;5.80;99.90;;;;;;4998862;28;20034;-73
2023/01/09 09:46:00;;;;;;;;;;;5.80;99.90;;;;;;5000895;28;20037;-73
2023/01/09 09:48:43;;;;;;;8.15;7.85;;;5.80;99.90;;;;;;5011729;28;19909;-72
2023/01/09 09:51:19;;;;;;;7.63;7.32;;;5.80;99.90;;;;;;4994414;28;20391;-73
2023/01/09 09:53:58;;;;;;;6.38;6.18;;;5.80;99.90;;;;;;4999540;28;20091;-73
2023/01/09 09:56:26;;;;;;;5.88;5.68;;;5.80;99.90;;;;;;5011850;28;20022;-73
2023/01/09 09:58:59;;;;;;;6.93;6.63;;;5.90;99.90;;;;;;5002460;28;20074;-73
2023/01/09 10:01:38;;;;;;;7.90;7.57;;;5.90;99.90;;;;;;5022817;28;20022;-72
2023/01/09 10:04:09;;;;;;;6.55;6.35;;;5.90;99.90;;;;;;5000518;28;20026;-73
2023/01/09 10:06:42;;;;;;;4.57;4.40;;;6.00;99.90;;;;;;4987989;28;20038;-73
2023/01/09 10:09:37;;;;;;;5.43;5.22;;;5.90;99.90;;;;;;4987149;28;20053;-74
2023/01/09 10:12:28;;;;;;;8.20;7.80;;;6.00;99.90;;;;;;5002328;28;20514;-72
2023/01/09 10:14:59;;;;;;;3.38;3.28;;;5.90;99.90;;;;;;4981494;28;20030;-73
2023/01/09 10:17:45;;;;;;;9.27;8.88;;;5.90;99.90;;;;;;4993847;28;20057;-73
2023/01/09 10:20:58;;;;;;;4.97;4.38;;;6.00;99.90;;;;;;4984248;28;20100;-72
2023/01/09 10:24:01;;;;;;;4.80;4.50;;;6.00;99.90;;;;;;4932021;29;20028;-73
2023/01/09 10:26:36;;;;;;;4.78;4.55;;;6.10;99.90;;;;;;4920903;29;20067;-73
2023/01/09 10:29:11;;;;;;;3.05;2.95;;;6.10;99.90;;;;;;4978102;28;20034;-73
2023/01/09 10:31:42;;;;;;;3.00;2.90;;;6.10;99.90;;;;;;5002934;28;20052;-73
2023/01/09 10:34:38;;;;;;;4.40;4.20;;;6.10;99.90;;;;;;5006242;28;20684;-73
2023/01/09 10:37:09;;;;;;;6.40;5.88;;;6.20;99.90;;;;;;5004822;28;20025;-73
2023/01/09 10:39:51;;;;;;;5.68;5.13;;;6.20;99.90;;;;;;4984158;28;20069;-73
2023/01/09 10:42:32;;;;;;;3.75;3.65;;;6.20;99.90;;;;;;5011471;28;20018;-72
2023/01/09 10:45:04;;;;;;;4.65;3.80;;;6.30;99.90;;;;;;5010933;28;20022;-73
2023/01/09 10:47:36;;;;;;;8.35;7.55;;;6.20;99.90;;;;;;4999832;28;20029;-73
2023/01/09 10:50:17;;;;;;;5.95;5.32;;;6.30;99.90;;;;;;5009275;28;20040;-73
2023/01/09 10:52:43;;;;;;;3.05;2.88;;;6.30;99.90;;;;;;5003465;28;20030;-73
2023/01/09 10:55:15;;;;;;;3.97;3.78;;;6.30;99.90;;;;;;4994648;28;20549;-74
2023/01/09 10:57:43;;;;;;;4.93;3.42;;;6.30;99.90;;;;;;5003305;28;20038;-74
2023/01/09 11:00:16;;;;;;;3.03;2.92;;;6.30;99.90;;;;;;5020492;28;20029;-73
2023/01/09 11:02:41;;;;;;;2.85;2.75;;;6.30;99.90;;;;;;5021080;28;20767;-73
2023/01/09 11:05:16;;;;;;;2.97;2.88;;;6.30;99.90;;;;;;4990352;28;20053;-73
2023/01/09 11:07:44;;;;;;;3.70;3.60;;;6.30;99.90;;;;;;5009683;28;20072;-73
2023/01/09 11:10:12;;;;;;;2.65;2.55;;;6.40;99.90;;;;;;5014572;28;20160;-73
2023/01/09 11:12:38;;;;;;;3.17;3.08;;;6.40;99.90;;;;;;4997169;28;20037;-73
2023/01/09 11:15:30;;;;;;;4.22;3.95;;;6.40;99.90;;;;;;4988380;28;20030;-73
2023/01/09 11:18:16;;;;;;;2.65;2.53;;;6.40;99.90;;;;;;4997872;28;20511;-73
2023/01/09 11:20:42;;;;;;;2.10;2.00;;;6.40;99.90;;;;;;5014501;28;20022;-73
2023/01/09 11:23:28;;;;;;;2.58;2.47;;;6.50;99.90;;;;;;5014732;28;20635;-73
2023/01/09 11:25:56;;;;;;;2.13;2.03;;;6.50;99.90;;;;;;4992237;28;20033;-73
2023/01/09 11:28:21;;;;;;;1.67;1.67;;;6.60;99.90;;;;;;5006530;28;20040;-74
2023/01/09 11:31:01;;;;;;;1.77;1.77;;;6.60;99.90;;;;;;5014099;28;20122;-75
2023/01/09 11:33:30;;;;;;;12.50;2.10;;;6.60;99.90;;;;;;5000547;28;20082;-71
2023/01/09 11:36:06;;;;;;;1.30;1.30;;;6.60;99.90;;;;;;5002096;28;20026;-72
2023/01/09 11:38:51;;;;;;;1.38;1.38;;;6.50;99.90;;;;;;5011853;28;20029;-72
2023/01/09 11:41:20;;;;;;;2.13;2.03;;;6.50;99.90;;;;;;5005994;28;20022;-72
2023/01/09 11:43:49;;;;;;;1.23;1.23;;;6.50;99.90;;;;;;5014378;28;20029;-73
2023/01/09 11:46:37;;;;;;;1.50;1.50;;;6.50;99.90;;;;;;4984716;28;20663;-72
2023/01/09 11:49:23;;;;;;;1.40;1.40;;;6.50;99.90;;;;;;5002351;28;20075;-72
2023/01/09 11:52:18;;;;;;;1.83;1.83;;;6.50;99.90;;;;;;4995840;28;20038;-73
2023/01/09 11:55:05;;;;;;;1.60;1.50;;;6.50;99.90;;;;;;5012376;28;20026;-73
2023/01/09 11:57:31;;;;;;;1.20;1.20;;;6.50;99.90;;;;;;5005195;28;20025;-74
2023/01/09 12:00:01;;;;;;;1.35;1.35;;;6.50;99.90;;;;;;4996291;28;20431;-73
2023/01/09 12:02:46;;;;;;;1.30;1.30;;;6.50;99.90;;;;;;5013809;28;20492;-74
2023/01/09 12:05:34;;;;;;;1.50;1.50;;;6.50;99.90;;;;;;5013891;28;20065;-73
2023/01/09 12:08:21;;;;;;;1.40;1.40;;;6.50;99.90;;;;;;5000064;28;20033;-73
2023/01/09 12:11:14;;;;;;;1.35;1.35;;;6.60;99.90;;;;;;5000353;28;20026;-73
2023/01/09 12:13:40;;;;;;;1.45;1.45;;;6.60;99.90;;;;;;5013610;28;20022;-73
2023/01/09 12:16:21;;;;;;;1.50;1.50;;;6.50;99.90;;;;;;4992373;28;20515;-72
2023/01/09 12:19:05;;;;;;;1.40;1.40;;;6.50;99.90;;;;;;4988388;28;20076;-73
2023/01/09 12:21:37;;;;;;;1.50;1.50;;;6.50;99.90;;;;;;5001941;28;20030;-73
2023/01/09 12:24:20;;;;;;;1.40;1.40;;;6.50;99.90;;;;;;4982613;28;20030;-73
2023/01/09 12:27:00;;;;;;;1.40;1.40;;;6.50;99.90;;;;;;4995704;28;20033;-73
2023/01/09 12:29:49;;;;;;;1.10;1.10;;;6.40;99.90;;;;;;4982297;28;20510;-73
2023/01/09 12:32:20;;;;;;;5.72;2.35;;;6.50;99.90;;;;;;5000139;28;20077;-74
2023/01/09 12:35:06;;;;;;;1.77;1.77;;;6.50;99.90;;;;;;5012854;28;20033;-73
2023/01/09 12:38:10;;;;;;;1.60;1.60;;;6.50;99.90;;;;;;5011769;28;20025;-73
2023/01/09 12:41:10;;;;;;;1.20;1.20;;;6.50;99.90;;;;;;4999685;28;20028;-74
2023/01/09 12:44:04;;;;;;;1.50;1.50;;;6.50;99.90;;;;;;4949478;28;20044;-73
2023/01/09 12:47:03;;;;;;;1.48;1.48;;;6.40;99.90;;;;;;4982513;28;20136;-74
2023/01/09 12:49:37;;;;;;;1.50;1.50;;;6.50;99.90;;;;;;5001789;28;20034;-73
2023/01/09 12:52:22;;;;;;;1.40;1.40;;;6.50;99.90;;;;;;5012066;28;20033;-73
2023/01/09 12:55:05;;;;;;;1.38;1.38;;;6.50;99.90;;;;;;5010648;28;20116;-73
2023/01/09 12:57:36;;;;;;;1.30;1.30;;;6.50;99.90;;;;;;4984938;28;20030;-73
2023/01/09 13:00:15;;;;;;;1.20;1.20;;;6.50;99.90;;;;;;5017087;28;20049;-73
2023/01/09 13:02:46;;;;;;;1.38;1.38;;;6.50;99.90;;;;;;5000211;28;20292;-73
2023/01/09 13:05:19;;;;;;;1.40;1.40;;;6.50;99.90;;;;;;5011779;28;20514;-73
2023/01/09 13:07:53;;;;;;;1.25;1.25;;;6.50;99.90;;;;;;5011425;28;20116;-73
2023/01/09 13:10:37;;;;;;;1.30;1.30;;;6.50;99.90;;;;;;5012386;28;20108;-73
2023/01/09 13:13:27;;;;;;;1.20;1.20;;;6.60;99.90;;;;;;5012419;28;20113;-73
2023/01/09 13:15:59;;;;;;;1.40;1.40;;;6.60;99.90;;;;;;4964972;28;20124;-73
2023/01/09 13:18:42;;;;;;;1.27;1.27;;;6.60;99.90;;;;;;4993964;28;20137;-73